This is the latest recevied weather packets stored in our database for station/object S54Z-11. If no packets are shown the sender has not sent any weather packets the latest 1 day(s).
| Time | Temp. | Humidity | Pressure | Rain* | Wind** | Luminosity | Snow |
|---|---|---|---|---|---|---|---|
| 1778055881 | 22.22° C | 47% | 1013.5 hPa | - | - | - | - |
| 1778053184 | 21.11° C | 50% | 1013.4 hPa | - | - | - | - |
| 1778049583 | 21.67° C | 49% | 1013.4 hPa | - | - | - | - |
| 1778047783 | 19.44° C | 56% | 1013.5 hPa | - | - | - | - |
| 1778046883 | 20° C | 53% | 1013.4 hPa | - | - | - | - |
| 1778045983 | 19.44° C | 56% | 1013.4 hPa | - | - | - | - |
| 1778045083 | 17.22° C | 63% | 1013.4 hPa | - | - | - | - |
| 1778044183 | 17.22° C | 62% | 1013.3 hPa | - | - | - | - |
| 1778043283 | 16.67° C | 64% | 1013.2 hPa | - | - | - | - |
| 1778042383 | 15.56° C | 68% | 1013.3 hPa | - | - | - | - |
| 1778041483 | 15° C | 70% | 1013.2 hPa | - | - | - | - |
| 1778040583 | 14.44° C | 73% | 1013.1 hPa | - | - | - | - |
| 1778039682 | 12.78° C | 80% | 1012.9 hPa | - | - | - | - |
| 1778036982 | 12.78° C | 80% | 1013 hPa | - | - | - | - |
| 1778036082 | 12.78° C | 81% | 1013.2 hPa | - | - | - | - |
| 1778035182 | 12.78° C | 80% | 1013.2 hPa | - | - | - | - |
| 1778032481 | 12.78° C | 80% | 1012.9 hPa | - | - | - | - |
| 1778031581 | 12.78° C | 80% | 1012.7 hPa | - | - | - | - |
| 1778030681 | 12.78° C | 80% | 1012.8 hPa | - | - | - | - |
| 1778029781 | 12.78° C | 79% | 1012.6 hPa | - | - | - | - |
| 1778028881 | 12.78° C | 80% | 1012.7 hPa | - | - | - | - |
| 1778027981 | 12.22° C | 81% | 1012.7 hPa | - | - | - | - |
| 1778027081 | 12.22° C | 82% | 1012.8 hPa | - | - | - | - |
| 1778026181 | 12.22° C | 83% | 1013 hPa | - | - | - | - |
| 1778025281 | 12.22° C | 82% | 1013.1 hPa | - | - | - | - |
* Rain since midnight (hover to see other rain measurements)
** Current wind speed in m/s (hover to see current wind gust speed)